sensor_id;sensor_type;location;lat;lon;timestamp;temperature;humidity
52656;SHT85;35474;51.032;6.998;2023-04-03T00:00:35;2.01;80.80
52656;SHT85;35474;51.032;6.998;2023-04-03T00:03:01;1.97;81.00
52656;SHT85;35474;51.032;6.998;2023-04-03T00:05:28;1.98;81.15
52656;SHT85;35474;51.032;6.998;2023-04-03T00:07:54;2.01;81.05
52656;SHT85;35474;51.032;6.998;2023-04-03T00:10:21;2.03;80.96
52656;SHT85;35474;51.032;6.998;2023-04-03T00:12:47;2.10;80.72
52656;SHT85;35474;51.032;6.998;2023-04-03T00:15:14;2.10;80.58
52656;SHT85;35474;51.032;6.998;2023-04-03T00:17:41;2.12;80.56
52656;SHT85;35474;51.032;6.998;2023-04-03T00:20:08;2.08;80.49
52656;SHT85;35474;51.032;6.998;2023-04-03T00:22:34;2.12;80.41
52656;SHT85;35474;51.032;6.998;2023-04-03T00:25:01;2.03;80.44
52656;SHT85;35474;51.032;6.998;2023-04-03T00:27:27;1.95;80.63
52656;SHT85;35474;51.032;6.998;2023-04-03T00:29:54;1.83;81.19
52656;SHT85;35474;51.032;6.998;2023-04-03T00:32:20;1.77;81.31
52656;SHT85;35474;51.032;6.998;2023-04-03T00:34:48;1.71;81.52
52656;SHT85;35474;51.032;6.998;2023-04-03T00:37:14;1.60;81.99
52656;SHT85;35474;51.032;6.998;2023-04-03T00:39:41;1.64;81.95
52656;SHT85;35474;51.032;6.998;2023-04-03T00:42:07;1.52;82.25
52656;SHT85;35474;51.032;6.998;2023-04-03T00:47:00;1.46;82.49
52656;SHT85;35474;51.032;6.998;2023-04-03T00:49:29;1.40;82.62
52656;SHT85;35474;51.032;6.998;2023-04-03T00:51:56;1.44;82.80
52656;SHT85;35474;51.032;6.998;2023-04-03T00:54:24;1.36;82.94
52656;SHT85;35474;51.032;6.998;2023-04-03T00:56:53;1.43;83.08
52656;SHT85;35474;51.032;6.998;2023-04-03T00:59:24;1.43;82.94
52656;SHT85;35474;51.032;6.998;2023-04-03T01:01:54;1.37;82.72
52656;SHT85;35474;51.032;6.998;2023-04-03T01:04:34;1.24;82.83
52656;SHT85;35474;51.032;6.998;2023-04-03T01:07:26;1.23;83.14
52656;SHT85;35474;51.032;6.998;2023-04-03T01:09:53;1.26;83.28
52656;SHT85;35474;51.032;6.998;2023-04-03T01:12:24;1.29;83.50
52656;SHT85;35474;51.032;6.998;2023-04-03T01:14:53;1.24;83.37
52656;SHT85;35474;51.032;6.998;2023-04-03T01:17:38;1.20;83.67
52656;SHT85;35474;51.032;6.998;2023-04-03T01:28:09;1.09;84.03
52656;SHT85;35474;51.032;6.998;2023-04-03T01:30:42;1.10;84.08
52656;SHT85;35474;51.032;6.998;2023-04-03T01:33:28;1.09;84.07
52656;SHT85;35474;51.032;6.998;2023-04-03T01:35:55;0.97;84.11
52656;SHT85;35474;51.032;6.998;2023-04-03T01:38:21;0.85;84.13
52656;SHT85;35474;51.032;6.998;2023-04-03T01:40:48;1.00;84.36
52656;SHT85;35474;51.032;6.998;2023-04-03T01:43:14;1.03;84.78
52656;SHT85;35474;51.032;6.998;2023-04-03T01:45:41;1.03;84.37
52656;SHT85;35474;51.032;6.998;2023-04-03T01:48:08;1.00;84.41
52656;SHT85;35474;51.032;6.998;2023-04-03T01:50:34;1.04;84.62
52656;SHT85;35474;51.032;6.998;2023-04-03T01:53:01;1.03;84.31
52656;SHT85;35474;51.032;6.998;2023-04-03T01:55:27;1.07;83.95
52656;SHT85;35474;51.032;6.998;2023-04-03T01:57:54;0.99;83.99
52656;SHT85;35474;51.032;6.998;2023-04-03T02:00:21;1.07;83.84
52656;SHT85;35474;51.032;6.998;2023-04-03T02:02:48;1.09;83.79
52656;SHT85;35474;51.032;6.998;2023-04-03T02:05:15;1.16;83.72
52656;SHT85;35474;51.032;6.998;2023-04-03T02:07:42;1.16;83.39
52656;SHT85;35474;51.032;6.998;2023-04-03T02:10:08;1.15;83.48
52656;SHT85;35474;51.032;6.998;2023-04-03T02:12:35;1.10;83.48
52656;SHT85;35474;51.032;6.998;2023-04-03T02:15:02;1.12;83.50
52656;SHT85;35474;51.032;6.998;2023-04-03T02:17:29;1.10;83.64
52656;SHT85;35474;51.032;6.998;2023-04-03T02:19:55;1.12;83.42
52656;SHT85;35474;51.032;6.998;2023-04-03T02:22:22;1.13;83.40
52656;SHT85;35474;51.032;6.998;2023-04-03T02:25:02;1.06;83.42
52656;SHT85;35474;51.032;6.998;2023-04-03T02:27:28;1.12;83.55
52656;SHT85;35474;51.032;6.998;2023-04-03T02:29:57;1.07;83.53
52656;SHT85;35474;51.032;6.998;2023-04-03T02:32:24;1.09;83.47
52656;SHT85;35474;51.032;6.998;2023-04-03T02:34:50;1.19;83.21
52656;SHT85;35474;51.032;6.998;2023-04-03T02:37:17;1.13;83.36
52656;SHT85;35474;51.032;6.998;2023-04-03T02:39:44;1.16;83.19
52656;SHT85;35474;51.032;6.998;2023-04-03T02:42:10;1.13;83.03
52656;SHT85;35474;51.032;6.998;2023-04-03T02:44:36;1.12;82.87
52656;SHT85;35474;51.032;6.998;2023-04-03T02:47:03;1.29;82.82
52656;SHT85;35474;51.032;6.998;2023-04-03T02:49:29;1.29;82.40
52656;SHT85;35474;51.032;6.998;2023-04-03T02:51:56;1.29;82.19
52656;SHT85;35474;51.032;6.998;2023-04-03T02:54:22;1.20;82.19
52656;SHT85;35474;51.032;6.998;2023-04-03T02:56:50;1.15;82.18
52656;SHT85;35474;51.032;6.998;2023-04-03T02:59:17;1.15;82.10
52656;SHT85;35474;51.032;6.998;2023-04-03T03:01:43;1.24;82.27
52656;SHT85;35474;51.032;6.998;2023-04-03T03:04:10;1.13;82.18
52656;SHT85;35474;51.032;6.998;2023-04-03T03:06:36;1.13;82.13
52656;SHT85;35474;51.032;6.998;2023-04-03T03:09:04;1.26;81.90
52656;SHT85;35474;51.032;6.998;2023-04-03T03:11:31;1.20;81.85
52656;SHT85;35474;51.032;6.998;2023-04-03T03:13:58;1.13;81.71
52656;SHT85;35474;51.032;6.998;2023-04-03T03:16:24;1.06;81.83
52656;SHT85;35474;51.032;6.998;2023-04-03T03:18:53;1.22;81.77
52656;SHT85;35474;51.032;6.998;2023-04-03T03:21:19;1.09;81.93
52656;SHT85;35474;51.032;6.998;2023-04-03T03:23:46;0.97;81.95
52656;SHT85;35474;51.032;6.998;2023-04-03T03:26:12;1.02;82.19
52656;SHT85;35474;51.032;6.998;2023-04-03T03:28:39;1.06;82.11
52656;SHT85;35474;51.032;6.998;2023-04-03T03:31:07;1.03;82.14
52656;SHT85;35474;51.032;6.998;2023-04-03T03:33:35;1.00;82.09
52656;SHT85;35474;51.032;6.998;2023-04-03T03:36:01;1.03;81.81
52656;SHT85;35474;51.032;6.998;2023-04-03T03:38:28;1.06;81.65
52656;SHT85;35474;51.032;6.998;2023-04-03T03:40:54;1.02;81.75
52656;SHT85;35474;51.032;6.998;2023-04-03T03:43:21;1.16;81.47
52656;SHT85;35474;51.032;6.998;2023-04-03T03:45:51;1.09;81.05
52656;SHT85;35474;51.032;6.998;2023-04-03T03:48:21;1.07;81.05
52656;SHT85;35474;51.032;6.998;2023-04-03T03:50:48;1.17;80.70
52656;SHT85;35474;51.032;6.998;2023-04-03T03:53:14;1.19;80.60
52656;SHT85;35474;51.032;6.998;2023-04-03T03:55:41;1.23;80.51
52656;SHT85;35474;51.032;6.998;2023-04-03T03:58:08;1.29;80.19
52656;SHT85;35474;51.032;6.998;2023-04-03T04:00:34;1.27;80.36
52656;SHT85;35474;51.032;6.998;2023-04-03T04:03:01;1.23;80.23
52656;SHT85;35474;51.032;6.998;2023-04-03T04:05:28;1.16;80.31
52656;SHT85;35474;51.032;6.998;2023-04-03T04:07:54;1.20;80.06
52656;SHT85;35474;51.032;6.998;2023-04-03T04:10:21;1.23;80.01
52656;SHT85;35474;51.032;6.998;2023-04-03T04:12:48;1.13;80.21
52656;SHT85;35474;51.032;6.998;2023-04-03T04:15:15;1.23;79.78
52656;SHT85;35474;51.032;6.998;2023-04-03T04:17:42;1.23;79.87
52656;SHT85;35474;51.032;6.998;2023-04-03T04:20:08;1.24;79.89
52656;SHT85;35474;51.032;6.998;2023-04-03T04:22:35;1.33;79.79
52656;SHT85;35474;51.032;6.998;2023-04-03T04:25:02;1.22;79.56
52656;SHT85;35474;51.032;6.998;2023-04-03T04:27:28;1.20;79.83
52656;SHT85;35474;51.032;6.998;2023-04-03T04:29:55;1.20;79.88
52656;SHT85;35474;51.032;6.998;2023-04-03T04:32:24;1.24;79.94
52656;SHT85;35474;51.032;6.998;2023-04-03T04:34:51;1.17;79.71
52656;SHT85;35474;51.032;6.998;2023-04-03T04:37:18;1.30;79.74
52656;SHT85;35474;51.032;6.998;2023-04-03T04:39:44;1.17;79.74
52656;SHT85;35474;51.032;6.998;2023-04-03T04:42:11;1.17;79.72
52656;SHT85;35474;51.032;6.998;2023-04-03T04:44:41;1.19;79.61
52656;SHT85;35474;51.032;6.998;2023-04-03T04:47:08;1.22;79.76
52656;SHT85;35474;51.032;6.998;2023-04-03T04:49:34;1.23;79.62
52656;SHT85;35474;51.032;6.998;2023-04-03T04:52:01;1.19;79.68
52656;SHT85;35474;51.032;6.998;2023-04-03T04:54:28;1.24;79.54
52656;SHT85;35474;51.032;6.998;2023-04-03T04:56:54;1.22;79.49
52656;SHT85;35474;51.032;6.998;2023-04-03T04:59:21;1.34;79.87
52656;SHT85;35474;51.032;6.998;2023-04-03T05:01:47;1.26;79.26
52656;SHT85;35474;51.032;6.998;2023-04-03T05:04:14;1.20;79.29
52656;SHT85;35474;51.032;6.998;2023-04-03T05:06:41;1.37;79.13
52656;SHT85;35474;51.032;6.998;2023-04-03T05:09:08;1.31;78.93
52656;SHT85;35474;51.032;6.998;2023-04-03T05:11:35;1.23;79.01
52656;SHT85;35474;51.032;6.998;2023-04-03T05:14:02;1.30;78.95
52656;SHT85;35474;51.032;6.998;2023-04-03T05:16:32;1.33;79.00
52656;SHT85;35474;51.032;6.998;2023-04-03T05:18:59;1.33;78.80
52656;SHT85;35474;51.032;6.998;2023-04-03T05:21:25;1.33;78.77
52656;SHT85;35474;51.032;6.998;2023-04-03T05:23:54;1.33;79.15
52656;SHT85;35474;51.032;6.998;2023-04-03T05:26:20;1.33;79.11
52656;SHT85;35474;51.032;6.998;2023-04-03T05:28:47;1.36;79.15
52656;SHT85;35474;51.032;6.998;2023-04-03T05:31:13;1.34;79.20
52656;SHT85;35474;51.032;6.998;2023-04-03T05:33:40;1.34;79.16
52656;SHT85;35474;51.032;6.998;2023-04-03T05:36:07;1.36;79.05
52656;SHT85;35474;51.032;6.998;2023-04-03T05:38:34;1.37;79.00
52656;SHT85;35474;51.032;6.998;2023-04-03T05:41:00;1.44;78.70
52656;SHT85;35474;51.032;6.998;2023-04-03T05:43:27;1.43;78.96
52656;SHT85;35474;51.032;6.998;2023-04-03T05:45:53;1.51;78.75
52656;SHT85;35474;51.032;6.998;2023-04-03T05:48:20;1.57;78.59
52656;SHT85;35474;51.032;6.998;2023-04-03T05:50:47;1.58;78.17
52656;SHT85;35474;51.032;6.998;2023-04-03T05:53:21;1.70;78.43
52656;SHT85;35474;51.032;6.998;2023-04-03T05:55:52;1.74;78.20
52656;SHT85;35474;51.032;6.998;2023-04-03T05:58:19;1.74;77.91
52656;SHT85;35474;51.032;6.998;2023-04-03T06:00:46;1.77;77.58
52656;SHT85;35474;51.032;6.998;2023-04-03T06:03:13;1.81;77.67
52656;SHT85;35474;51.032;6.998;2023-04-03T06:05:41;1.82;77.70
52656;SHT85;35474;51.032;6.998;2023-04-03T06:08:07;1.97;77.49
52656;SHT85;35474;51.032;6.998;2023-04-03T06:10:35;2.06;77.04
52656;SHT85;35474;51.032;6.998;2023-04-03T06:13:02;2.10;76.56
52656;SHT85;35474;51.032;6.998;2023-04-03T06:15:29;2.03;76.78
52656;SHT85;35474;51.032;6.998;2023-04-03T06:17:55;2.23;76.74
52656;SHT85;35474;51.032;6.998;2023-04-03T06:20:22;2.20;76.47
52656;SHT85;35474;51.032;6.998;2023-04-03T06:22:49;2.25;76.47
52656;SHT85;35474;51.032;6.998;2023-04-03T06:25:16;2.36;76.04
52656;SHT85;35474;51.032;6.998;2023-04-03T06:27:45;2.50;75.44
52656;SHT85;35474;51.032;6.998;2023-04-03T06:32:34;2.61;74.96
52656;SHT85;35474;51.032;6.998;2023-04-03T06:35:01;2.68;74.69
52656;SHT85;35474;51.032;6.998;2023-04-03T06:37:27;2.76;74.50
52656;SHT85;35474;51.032;6.998;2023-04-03T06:39:56;2.87;73.95
52656;SHT85;35474;51.032;6.998;2023-04-03T06:42:23;2.92;73.63
52656;SHT85;35474;51.032;6.998;2023-04-03T06:44:51;2.97;73.20
52656;SHT85;35474;51.032;6.998;2023-04-03T06:47:18;3.04;72.66
52656;SHT85;35474;51.032;6.998;2023-04-03T06:49:44;3.11;72.27
52656;SHT85;35474;51.032;6.998;2023-04-03T06:52:11;3.26;71.42
52656;SHT85;35474;51.032;6.998;2023-04-03T06:54:38;3.29;71.02
52656;SHT85;35474;51.032;6.998;2023-04-03T06:57:06;3.38;71.33
52656;SHT85;35474;51.032;6.998;2023-04-03T06:59:33;3.48;70.74
52656;SHT85;35474;51.032;6.998;2023-04-03T07:02:00;3.57;69.87
52656;SHT85;35474;51.032;6.998;2023-04-03T07:04:27;3.67;69.50
52656;SHT85;35474;51.032;6.998;2023-04-03T07:06:54;3.71;68.43
52656;SHT85;35474;51.032;6.998;2023-04-03T07:09:21;3.74;67.95
52656;SHT85;35474;51.032;6.998;2023-04-03T07:11:47;3.86;67.89
52656;SHT85;35474;51.032;6.998;2023-04-03T07:14:14;3.87;67.54
52656;SHT85;35474;51.032;6.998;2023-04-03T07:16:40;4.02;67.39
52656;SHT85;35474;51.032;6.998;2023-04-03T07:19:08;4.12;66.61
52656;SHT85;35474;51.032;6.998;2023-04-03T07:21:35;4.53;65.65
52656;SHT85;35474;51.032;6.998;2023-04-03T07:24:01;5.54;63.31
52656;SHT85;35474;51.032;6.998;2023-04-03T07:26:28;5.89;61.07
52656;SHT85;35474;51.032;6.998;2023-04-03T07:28:55;6.40;59.97
52656;SHT85;35474;51.032;6.998;2023-04-03T07:31:21;7.20;57.29
52656;SHT85;35474;51.032;6.998;2023-04-03T07:33:48;7.27;56.61
52656;SHT85;35474;51.032;6.998;2023-04-03T07:36:15;7.70;55.63
52656;SHT85;35474;51.032;6.998;2023-04-03T07:38:43;7.60;55.69
52656;SHT85;35474;51.032;6.998;2023-04-03T07:41:13;7.19;55.04
52656;SHT85;35474;51.032;6.998;2023-04-03T07:43:41;6.97;55.44
52656;SHT85;35474;51.032;6.998;2023-04-03T07:46:08;7.48;54.29
52656;SHT85;35474;51.032;6.998;2023-04-03T07:48:35;7.54;54.15
52656;SHT85;35474;51.032;6.998;2023-04-03T07:51:02;7.74;54.09
52656;SHT85;35474;51.032;6.998;2023-04-03T07:53:30;7.82;53.65
52656;SHT85;35474;51.032;6.998;2023-04-03T07:55:58;7.91;52.16
52656;SHT85;35474;51.032;6.998;2023-04-03T07:58:25;8.25;51.03
52656;SHT85;35474;51.032;6.998;2023-04-03T08:00:53;8.15;50.78
52656;SHT85;35474;51.032;6.998;2023-04-03T08:03:20;8.53;50.26
52656;SHT85;35474;51.032;6.998;2023-04-03T08:05:48;8.70;49.74
52656;SHT85;35474;51.032;6.998;2023-04-03T08:08:17;8.92;50.19
52656;SHT85;35474;51.032;6.998;2023-04-03T08:10:50;9.21;49.25
52656;SHT85;35474;51.032;6.998;2023-04-03T08:13:18;8.97;49.14
52656;SHT85;35474;51.032;6.998;2023-04-03T08:15:46;8.87;48.29
52656;SHT85;35474;51.032;6.998;2023-04-03T08:18:13;9.14;48.14
52656;SHT85;35474;51.032;6.998;2023-04-03T08:20:40;9.56;47.41
52656;SHT85;35474;51.032;6.998;2023-04-03T08:23:09;9.95;46.15
52656;SHT85;35474;51.032;6.998;2023-04-03T08:25:39;10.21;45.42
52656;SHT85;35474;51.032;6.998;2023-04-03T08:28:11;11.20;43.30
52656;SHT85;35474;51.032;6.998;2023-04-03T08:30:43;10.48;43.64
52656;SHT85;35474;51.032;6.998;2023-04-03T08:33:13;10.84;43.73
52656;SHT85;35474;51.032;6.998;2023-04-03T08:35:51;10.45;43.55
52656;SHT85;35474;51.032;6.998;2023-04-03T08:38:19;10.25;43.44
52656;SHT85;35474;51.032;6.998;2023-04-03T08:40:45;10.12;43.49
52656;SHT85;35474;51.032;6.998;2023-04-03T08:43:19;10.58;43.38
52656;SHT85;35474;51.032;6.998;2023-04-03T08:45:52;10.81;42.52
52656;SHT85;35474;51.032;6.998;2023-04-03T08:48:23;10.38;43.32
52656;SHT85;35474;51.032;6.998;2023-04-03T08:51:17;11.08;42.75
52656;SHT85;35474;51.032;6.998;2023-04-03T08:53:52;10.86;42.72
52656;SHT85;35474;51.032;6.998;2023-04-03T08:56:24;10.46;42.79
52656;SHT85;35474;51.032;6.998;2023-04-03T08:59:03;10.52;43.26
52656;SHT85;35474;51.032;6.998;2023-04-03T09:01:34;11.38;41.73
52656;SHT85;35474;51.032;6.998;2023-04-03T09:04:09;10.63;42.23
52656;SHT85;35474;51.032;6.998;2023-04-03T09:06:38;10.26;42.86
52656;SHT85;35474;51.032;6.998;2023-04-03T09:09:07;11.52;41.74
52656;SHT85;35474;51.032;6.998;2023-04-03T09:14:21;11.45;36.79
52656;SHT85;35474;51.032;6.998;2023-04-03T09:16:58;11.27;36.06
52656;SHT85;35474;51.032;6.998;2023-04-03T09:22:21;11.63;35.39
52656;SHT85;35474;51.032;6.998;2023-04-03T09:27:44;12.03;34.57
52656;SHT85;35474;51.032;6.998;2023-04-03T09:30:13;11.97;35.26
52656;SHT85;35474;51.032;6.998;2023-04-03T09:32:44;11.96;35.76
52656;SHT85;35474;51.032;6.998;2023-04-03T09:40:47;12.71;34.80
52656;SHT85;35474;51.032;6.998;2023-04-03T09:45:49;11.47;37.95
52656;SHT85;35474;51.032;6.998;2023-04-03T09:48:18;12.06;36.48
52656;SHT85;35474;51.032;6.998;2023-04-03T09:53:30;11.93;36.54
52656;SHT85;35474;51.032;6.998;2023-04-03T09:56:00;12.13;36.54
52656;SHT85;35474;51.032;6.998;2023-04-03T09:58:38;12.65;35.45
52656;SHT85;35474;51.032;6.998;2023-04-03T10:01:23;11.55;35.57
52656;SHT85;35474;51.032;6.998;2023-04-03T10:06:51;12.61;34.76
52656;SHT85;35474;51.032;6.998;2023-04-03T10:09:21;13.25;34.43
52656;SHT85;35474;51.032;6.998;2023-04-03T10:12:05;12.61;34.76
52656;SHT85;35474;51.032;6.998;2023-04-03T10:14:35;13.09;35.49
52656;SHT85;35474;51.032;6.998;2023-04-03T10:19:44;13.19;35.13
52656;SHT85;35474;51.032;6.998;2023-04-03T10:30:59;13.42;34.48
52656;SHT85;35474;51.032;6.998;2023-04-03T10:36:29;12.96;34.82
52656;SHT85;35474;51.032;6.998;2023-04-03T10:55:50;15.01;29.56
52656;SHT85;35474;51.032;6.998;2023-04-03T11:01:07;15.17;29.63
52656;SHT85;35474;51.032;6.998;2023-04-03T11:03:40;14.81;29.92
52656;SHT85;35474;51.032;6.998;2023-04-03T11:06:11;14.81;29.70
52656;SHT85;35474;51.032;6.998;2023-04-03T11:09:00;15.00;28.92
52656;SHT85;35474;51.032;6.998;2023-04-03T11:11:33;15.15;28.96
52656;SHT85;35474;51.032;6.998;2023-04-03T11:14:08;15.15;29.14
52656;SHT85;35474;51.032;6.998;2023-04-03T11:16:48;14.39;27.14
52656;SHT85;35474;51.032;6.998;2023-04-03T11:22:22;14.52;27.68
52656;SHT85;35474;51.032;6.998;2023-04-03T11:25:04;14.36;27.53
52656;SHT85;35474;51.032;6.998;2023-04-03T11:27:35;15.03;27.61
52656;SHT85;35474;51.032;6.998;2023-04-03T11:30:14;15.46;27.23
52656;SHT85;35474;51.032;6.998;2023-04-03T11:35:22;15.24;26.39
52656;SHT85;35474;51.032;6.998;2023-04-03T11:37:51;15.22;25.95
52656;SHT85;35474;51.032;6.998;2023-04-03T11:40:24;15.51;24.77
52656;SHT85;35474;51.032;6.998;2023-04-03T11:47:52;16.67;24.86
52656;SHT85;35474;51.032;6.998;2023-04-03T12:05:55;15.87;24.22
52656;SHT85;35474;51.032;6.998;2023-04-03T12:13:41;16.83;23.74
52656;SHT85;35474;51.032;6.998;2023-04-03T12:23:59;15.27;23.31
52656;SHT85;35474;51.032;6.998;2023-04-03T12:43:43;16.22;23.86
52656;SHT85;35474;51.032;6.998;2023-04-03T12:46:26;16.64;24.52
52656;SHT85;35474;51.032;6.998;2023-04-03T12:51:57;16.58;23.98
52656;SHT85;35474;51.032;6.998;2023-04-03T12:57:11;16.76;23.32
52656;SHT85;35474;51.032;6.998;2023-04-03T12:59:48;15.86;24.03
52656;SHT85;35474;51.032;6.998;2023-04-03T13:04:47;15.25;25.15
52656;SHT85;35474;51.032;6.998;2023-04-03T13:07:19;14.95;25.94
52656;SHT85;35474;51.032;6.998;2023-04-03T13:09:54;15.87;25.17
52656;SHT85;35474;51.032;6.998;2023-04-03T13:12:22;16.73;24.47
52656;SHT85;35474;51.032;6.998;2023-04-03T13:14:53;15.70;25.00
52656;SHT85;35474;51.032;6.998;2023-04-03T13:17:21;16.47;25.23
52656;SHT85;35474;51.032;6.998;2023-04-03T13:19:48;16.90;24.53
52656;SHT85;35474;51.032;6.998;2023-04-03T13:22:22;17.26;25.47
52656;SHT85;35474;51.032;6.998;2023-04-03T13:24:56;16.06;25.20
52656;SHT85;35474;51.032;6.998;2023-04-03T13:27:29;16.47;25.31
52656;SHT85;35474;51.032;6.998;2023-04-03T13:29:57;16.69;25.54
52656;SHT85;35474;51.032;6.998;2023-04-03T13:32:26;17.41;23.92
52656;SHT85;35474;51.032;6.998;2023-04-03T13:34:55;15.89;25.70
52656;SHT85;35474;51.032;6.998;2023-04-03T13:37:31;15.58;26.43
52656;SHT85;35474;51.032;6.998;2023-04-03T13:40:02;15.41;26.03
52656;SHT85;35474;51.032;6.998;2023-04-03T13:42:30;15.36;27.36
52656;SHT85;35474;51.032;6.998;2023-04-03T13:47:50;15.90;26.83
52656;SHT85;35474;51.032;6.998;2023-04-03T13:50:20;15.89;26.52
52656;SHT85;35474;51.032;6.998;2023-04-03T13:52:50;16.04;26.77
52656;SHT85;35474;51.032;6.998;2023-04-03T13:57:56;15.91;28.13
52656;SHT85;35474;51.032;6.998;2023-04-03T14:00:31;16.22;28.02
52656;SHT85;35474;51.032;6.998;2023-04-03T14:03:25;17.03;27.00
52656;SHT85;35474;51.032;6.998;2023-04-03T14:05:55;16.49;26.22
52656;SHT85;35474;51.032;6.998;2023-04-03T14:08:22;15.43;27.51
52656;SHT85;35474;51.032;6.998;2023-04-03T14:11:01;15.17;28.42
52656;SHT85;35474;51.032;6.998;2023-04-03T14:13:31;15.39;28.65
52656;SHT85;35474;51.032;6.998;2023-04-03T14:15:57;15.52;29.04
52656;SHT85;35474;51.032;6.998;2023-04-03T14:18:38;15.76;28.22
52656;SHT85;35474;51.032;6.998;2023-04-03T14:21:05;15.96;28.21
52656;SHT85;35474;51.032;6.998;2023-04-03T14:23:31;16.07;28.47
52656;SHT85;35474;51.032;6.998;2023-04-03T14:25:59;15.91;27.59
52656;SHT85;35474;51.032;6.998;2023-04-03T14:28:26;16.51;26.85
52656;SHT85;35474;51.032;6.998;2023-04-03T14:30:53;16.54;27.70
52656;SHT85;35474;51.032;6.998;2023-04-03T14:33:21;16.38;27.53
52656;SHT85;35474;51.032;6.998;2023-04-03T14:35:48;16.07;27.63
52656;SHT85;35474;51.032;6.998;2023-04-03T14:38:20;15.65;28.38
52656;SHT85;35474;51.032;6.998;2023-04-03T14:40:53;15.76;28.87
52656;SHT85;35474;51.032;6.998;2023-04-03T14:43:24;16.10;27.62
52656;SHT85;35474;51.032;6.998;2023-04-03T14:45:53;16.37;27.49
52656;SHT85;35474;51.032;6.998;2023-04-03T14:48:24;16.00;27.72
52656;SHT85;35474;51.032;6.998;2023-04-03T14:50:53;15.35;28.09
52656;SHT85;35474;51.032;6.998;2023-04-03T14:53:30;15.03;29.15
52656;SHT85;35474;51.032;6.998;2023-04-03T14:56:18;15.07;29.01
52656;SHT85;35474;51.032;6.998;2023-04-03T14:58:49;15.31;28.85
52656;SHT85;35474;51.032;6.998;2023-04-03T15:01:18;15.42;28.68
52656;SHT85;35474;51.032;6.998;2023-04-03T15:03:46;15.96;27.46
52656;SHT85;35474;51.032;6.998;2023-04-03T15:06:13;15.76;28.20
52656;SHT85;35474;51.032;6.998;2023-04-03T15:08:42;15.55;28.39
52656;SHT85;35474;51.032;6.998;2023-04-03T15:11:10;14.83;28.96
52656;SHT85;35474;51.032;6.998;2023-04-03T15:13:37;14.83;29.05
52656;SHT85;35474;51.032;6.998;2023-04-03T15:16:05;15.18;29.77
52656;SHT85;35474;51.032;6.998;2023-04-03T15:18:38;15.32;29.10
52656;SHT85;35474;51.032;6.998;2023-04-03T15:21:05;15.56;28.41
52656;SHT85;35474;51.032;6.998;2023-04-03T15:23:31;15.03;28.81
52656;SHT85;35474;51.032;6.998;2023-04-03T15:25:58;14.87;29.82
52656;SHT85;35474;51.032;6.998;2023-04-03T15:28:29;14.55;29.98
52656;SHT85;35474;51.032;6.998;2023-04-03T15:31:02;15.17;29.58
52656;SHT85;35474;51.032;6.998;2023-04-03T15:33:30;15.70;30.02
52656;SHT85;35474;51.032;6.998;2023-04-03T15:35:58;15.77;28.72
52656;SHT85;35474;51.032;6.998;2023-04-03T15:38:33;15.63;28.92
52656;SHT85;35474;51.032;6.998;2023-04-03T15:41:04;15.85;29.03
52656;SHT85;35474;51.032;6.998;2023-04-03T15:43:31;15.52;29.81
52656;SHT85;35474;51.032;6.998;2023-04-03T15:45:59;14.95;29.46
52656;SHT85;35474;51.032;6.998;2023-04-03T15:48:27;15.27;29.62
52656;SHT85;35474;51.032;6.998;2023-04-03T15:50:54;14.76;30.42
52656;SHT85;35474;51.032;6.998;2023-04-03T15:53:23;14.70;30.22
52656;SHT85;35474;51.032;6.998;2023-04-03T15:55:50;14.93;30.32
52656;SHT85;35474;51.032;6.998;2023-04-03T15:58:16;15.07;30.29
52656;SHT85;35474;51.032;6.998;2023-04-03T16:00:43;14.88;30.45
52656;SHT85;35474;51.032;6.998;2023-04-03T16:03:11;14.90;30.32
52656;SHT85;35474;51.032;6.998;2023-04-03T16:05:41;14.88;29.86
52656;SHT85;35474;51.032;6.998;2023-04-03T16:08:08;14.69;30.31
52656;SHT85;35474;51.032;6.998;2023-04-03T16:10:36;14.42;30.75
52656;SHT85;35474;51.032;6.998;2023-04-03T16:13:03;14.29;31.08
52656;SHT85;35474;51.032;6.998;2023-04-03T16:15:31;13.95;32.14
52656;SHT85;35474;51.032;6.998;2023-04-03T16:18:00;14.02;31.05
52656;SHT85;35474;51.032;6.998;2023-04-03T16:20:28;13.64;31.65
52656;SHT85;35474;51.032;6.998;2023-04-03T16:22:56;13.90;31.66
52656;SHT85;35474;51.032;6.998;2023-04-03T16:25:24;13.87;32.02
52656;SHT85;35474;51.032;6.998;2023-04-03T16:27:52;13.56;31.57
52656;SHT85;35474;51.032;6.998;2023-04-03T16:30:18;12.75;33.33
52656;SHT85;35474;51.032;6.998;2023-04-03T16:32:45;13.27;33.02
52656;SHT85;35474;51.032;6.998;2023-04-03T16:35:12;13.20;33.09
52656;SHT85;35474;51.032;6.998;2023-04-03T16:37:38;13.54;32.53
52656;SHT85;35474;51.032;6.998;2023-04-03T16:40:06;13.51;32.56
52656;SHT85;35474;51.032;6.998;2023-04-03T16:42:33;13.06;32.64
52656;SHT85;35474;51.032;6.998;2023-04-03T16:45:03;13.12;33.13
52656;SHT85;35474;51.032;6.998;2023-04-03T16:47:32;13.02;33.27
52656;SHT85;35474;51.032;6.998;2023-04-03T16:49:59;12.75;33.50
52656;SHT85;35474;51.032;6.998;2023-04-03T16:52:26;12.21;33.83
52656;SHT85;35474;51.032;6.998;2023-04-03T16:54:52;12.57;34.01
52656;SHT85;35474;51.032;6.998;2023-04-03T16:57:22;12.40;34.07
52656;SHT85;35474;51.032;6.998;2023-04-03T16:59:51;12.18;34.01
52656;SHT85;35474;51.032;6.998;2023-04-03T17:02:18;11.99;34.20
52656;SHT85;35474;51.032;6.998;2023-04-03T17:04:45;12.18;34.37
52656;SHT85;35474;51.032;6.998;2023-04-03T17:07:12;12.13;33.96
52656;SHT85;35474;51.032;6.998;2023-04-03T17:09:38;12.13;34.45
52656;SHT85;35474;51.032;6.998;2023-04-03T17:12:05;11.88;34.46
52656;SHT85;35474;51.032;6.998;2023-04-03T17:14:31;11.85;34.64
52656;SHT85;35474;51.032;6.998;2023-04-03T17:16:58;11.81;34.51
52656;SHT85;35474;51.032;6.998;2023-04-03T17:19:24;11.78;34.52
52656;SHT85;35474;51.032;6.998;2023-04-03T17:21:52;11.49;34.48
52656;SHT85;35474;51.032;6.998;2023-04-03T17:24:19;11.47;34.78
52656;SHT85;35474;51.032;6.998;2023-04-03T17:26:45;11.32;34.98
52656;SHT85;35474;51.032;6.998;2023-04-03T17:29:12;11.20;35.26
52656;SHT85;35474;51.032;6.998;2023-04-03T17:31:39;11.11;35.59
52656;SHT85;35474;51.032;6.998;2023-04-03T17:34:06;10.89;35.87
52656;SHT85;35474;51.032;6.998;2023-04-03T17:36:33;10.79;36.53
52656;SHT85;35474;51.032;6.998;2023-04-03T17:39:02;10.60;37.05
52656;SHT85;35474;51.032;6.998;2023-04-03T17:41:29;10.53;37.84
52656;SHT85;35474;51.032;6.998;2023-04-03T17:43:55;10.28;38.40
52656;SHT85;35474;51.032;6.998;2023-04-03T17:46:22;9.98;39.24
52656;SHT85;35474;51.032;6.998;2023-04-03T17:48:50;10.00;39.89
52656;SHT85;35474;51.032;6.998;2023-04-03T17:51:18;9.97;39.94
52656;SHT85;35474;51.032;6.998;2023-04-03T17:53:47;9.53;40.34
52656;SHT85;35474;51.032;6.998;2023-04-03T17:57:34;9.21;40.78
52656;SHT85;35474;51.032;6.998;2023-04-03T18:00:01;8.87;41.37
52656;SHT85;35474;51.032;6.998;2023-04-03T18:02:30;8.71;41.58
52656;SHT85;35474;51.032;6.998;2023-04-03T18:04:57;8.52;42.08
52656;SHT85;35474;51.032;6.998;2023-04-03T18:07:23;8.28;42.55
52656;SHT85;35474;51.032;6.998;2023-04-03T18:09:50;8.26;42.55